Aviation Digital Data Service (ADDS)

Output produced by METARs form (0655 UTC 24 September 2017)
found at http://aviationweather.gov/adds/metars/
 
KORH 240521Z 2406/2506 32004KT P6SM SKC 
     FM241200 36005KT P6SM SKC 
     FM250200 24004KT P6SM SKC